< < Back
Terminal Aerodrome Forecast


Current Version              Previous Versions:   1  2  3  4  5  6  7  8  9  

Terminal Aerodrome Forecast

345
FTUS42 KILM 300521
TAFILM
TAF
KILM 300521Z 3006/0106 21004KT P6SM FEW250
     FM301300 24007KT P6SM FEW030 SCT250
     FM301900 20014G22KT P6SM VCSH SCT050 SCT250=



Latest METAR

490
SAUS70 KWBC 010400 RRP
MTRILM
METAR KILM 010353Z 18009KT 10SM CLR 27/23 A2995 RMK AO2 SLP143
T02670228


USA.gov is the U.S. government's official web portal to all federal, state and local government web resources and services.